createdAt,value
2018-12-22T00:01:48.624Z,36.42
2018-12-22T00:04:16.583Z,33.80
2018-12-22T00:06:44.494Z,36.48
2018-12-22T00:09:12.459Z,31.15
2018-12-22T00:11:40.590Z,36.38
2018-12-22T00:14:08.543Z,36.35
2018-12-22T00:16:36.505Z,37.45
2018-12-22T00:19:04.423Z,34.67
2018-12-22T00:21:32.426Z,34.30
2018-12-22T00:24:00.374Z,35.03
2018-12-22T00:26:28.387Z,34.48
2018-12-22T00:28:56.317Z,35.08
2018-12-22T00:31:24.289Z,29.87
2018-12-22T00:33:52.200Z,26.30
2018-12-22T00:36:20.110Z,23.05
2018-12-22T00:38:48.069Z,23.07
2018-12-22T00:41:16.018Z,24.47
2018-12-22T00:43:43.971Z,24.52
2018-12-22T00:46:11.968Z,22.27
2018-12-22T00:48:39.977Z,23.60
2018-12-22T00:51:08.201Z,23.80
2018-12-22T00:53:36.168Z,22.50
2018-12-22T00:56:04.110Z,24.57
2018-12-22T00:58:32.020Z,22.75
2018-12-22T01:01:00.014Z,21.00
2018-12-22T01:03:27.980Z,21.45
2018-12-22T01:05:55.904Z,22.07
2018-12-22T01:08:23.831Z,23.50
2018-12-22T01:10:51.766Z,21.82
2018-12-22T01:13:19.734Z,22.10
2018-12-22T01:15:47.723Z,20.20
2018-12-22T01:18:15.643Z,21.27
2018-12-22T01:20:43.605Z,20.30
2018-12-22T01:23:11.585Z,20.27
2018-12-22T01:25:39.535Z,20.25
2018-12-22T01:28:08.641Z,19.45
2018-12-22T01:30:36.557Z,18.05
2018-12-22T01:33:04.507Z,18.62
2018-12-22T01:35:32.416Z,18.05
2018-12-22T01:38:00.394Z,18.10
2018-12-22T01:40:28.350Z,18.80
2018-12-22T01:42:56.413Z,18.15
2018-12-22T01:45:24.385Z,20.23
2018-12-22T01:47:52.330Z,19.40
2018-12-22T01:50:20.227Z,19.20
2018-12-22T01:52:48.218Z,19.30
2018-12-22T01:55:16.238Z,19.17
2018-12-22T01:57:44.150Z,17.60
2018-12-22T02:00:12.230Z,16.60
2018-12-22T02:02:40.150Z,16.07
2018-12-22T02:05:08.090Z,16.62
2018-12-22T02:07:36.094Z,15.95
2018-12-22T02:10:04.437Z,16.60
2018-12-22T02:12:32.354Z,17.02
2018-12-22T02:15:00.286Z,16.95
2018-12-22T02:17:28.194Z,15.90
2018-12-22T02:19:56.184Z,15.68
2018-12-22T02:22:24.081Z,15.93
2018-12-22T02:24:52.063Z,14.63
2018-12-22T02:27:19.981Z,14.20
2018-12-22T02:29:47.908Z,15.55
2018-12-22T02:32:18.361Z,12.75
2018-12-22T02:34:45.837Z,13.22
2018-12-22T02:37:13.733Z,14.38
2018-12-22T02:39:41.666Z,12.78
2018-12-22T02:42:09.602Z,13.00
2018-12-22T02:44:37.541Z,13.13
2018-12-22T02:47:05.478Z,13.20
2018-12-22T02:49:33.410Z,13.90
2018-12-22T02:52:01.347Z,13.55
2018-12-22T02:54:29.327Z,14.05
2018-12-22T02:56:57.317Z,13.80
2018-12-22T02:59:25.267Z,11.97
2018-12-22T03:01:53.216Z,12.40
2018-12-22T03:04:21.156Z,13.20
2018-12-22T03:06:49.090Z,11.78
2018-12-22T03:09:17.057Z,11.33
2018-12-22T03:11:45.110Z,11.85
2018-12-22T03:14:13.038Z,11.05
2018-12-22T03:16:40.975Z,11.83
2018-12-22T03:19:08.883Z,10.55
2018-12-22T03:21:36.827Z,10.20
2018-12-22T03:24:04.782Z,10.03
2018-12-22T03:26:32.693Z,11.15
2018-12-22T03:29:00.662Z,11.30
2018-12-22T03:31:28.608Z,9.43
2018-12-22T03:33:56.527Z,10.38
2018-12-22T03:36:24.458Z,9.23
2018-12-22T03:38:52.406Z,10.68
2018-12-22T03:41:20.408Z,8.88
2018-12-22T03:43:48.354Z,9.53
2018-12-22T03:46:16.319Z,10.38
2018-12-22T03:48:44.288Z,10.32
2018-12-22T03:51:12.249Z,8.98
2018-12-22T03:53:40.190Z,7.85
2018-12-22T03:56:08.135Z,9.03
2018-12-22T03:58:36.061Z,10.00
2018-12-22T04:01:04.032Z,8.88
2018-12-22T04:03:31.993Z,9.95
2018-12-22T04:05:59.960Z,8.95
2018-12-22T04:08:27.862Z,9.50
2018-12-22T04:10:55.776Z,8.58
2018-12-22T04:13:23.671Z,8.85
2018-12-22T04:15:51.596Z,10.45
2018-12-22T04:18:19.501Z,9.15
2018-12-22T04:20:47.452Z,16.52
2018-12-22T04:23:15.395Z,15.65
2018-12-22T04:25:43.352Z,16.85
2018-12-22T04:28:11.289Z,16.90
2018-12-22T04:30:39.264Z,19.62
2018-12-22T04:33:07.267Z,18.50
2018-12-22T04:35:35.190Z,14.75
2018-12-22T04:38:03.119Z,16.67
2018-12-22T04:40:31.007Z,18.05
2018-12-22T04:42:58.912Z,18.37
2018-12-22T04:45:27.046Z,16.07
2018-12-22T04:47:55.005Z,14.38
2018-12-22T04:50:22.928Z,15.35
2018-12-22T04:52:50.874Z,17.95
2018-12-22T04:55:19.998Z,22.10
2018-12-22T04:57:47.942Z,20.45
2018-12-22T05:00:15.872Z,18.60
2018-12-22T05:02:43.810Z,24.23
2018-12-22T05:05:11.743Z,21.57
2018-12-22T05:07:39.674Z,23.27
2018-12-22T05:10:07.744Z,20.65
2018-12-22T05:12:35.705Z,16.55
2018-12-22T05:15:03.818Z,19.40
2018-12-22T05:17:31.730Z,18.90
2018-12-22T05:19:59.675Z,17.50
2018-12-22T05:22:27.609Z,17.77
2018-12-22T05:24:55.544Z,15.23
2018-12-22T05:27:24.611Z,16.75
2018-12-22T05:29:52.599Z,17.20
2018-12-22T05:32:20.520Z,17.82
2018-12-22T05:34:48.460Z,17.75
2018-12-22T05:37:16.393Z,18.23
2018-12-22T05:39:44.299Z,16.95
2018-12-22T05:42:12.222Z,16.75
2018-12-22T05:44:40.151Z,21.10
2018-12-22T05:47:08.093Z,20.75
2018-12-22T05:49:36.039Z,24.75
2018-12-22T05:52:03.977Z,25.82
2018-12-22T05:54:31.948Z,25.35
2018-12-22T05:56:59.924Z,29.85
2018-12-22T05:59:27.911Z,31.90
2018-12-22T06:01:55.910Z,30.60
2018-12-22T06:04:23.855Z,30.15
2018-12-22T06:06:51.829Z,28.47
2018-12-22T06:09:19.754Z,27.05
2018-12-22T06:11:47.671Z,27.65
2018-12-22T06:14:15.620Z,29.95
2018-12-22T06:16:43.590Z,27.77
2018-12-22T06:19:11.562Z,28.25
2018-12-22T06:21:39.493Z,29.20
2018-12-22T06:24:07.425Z,28.90
2018-12-22T06:26:42.332Z,26.52
2018-12-22T06:29:11.414Z,28.73
2018-12-22T06:31:39.410Z,26.17
2018-12-22T06:34:07.453Z,28.15
2018-12-22T06:36:35.363Z,26.85
2018-12-22T06:39:05.087Z,25.50
2018-12-22T06:41:33.025Z,25.92
2018-12-22T06:44:00.991Z,25.32
2018-12-22T06:46:28.941Z,24.98
2018-12-22T06:48:56.889Z,22.95
2018-12-22T06:51:24.846Z,21.75
2018-12-22T06:53:52.749Z,20.90
2018-12-22T06:56:20.701Z,19.05
2018-12-22T06:58:48.661Z,19.92
2018-12-22T07:01:16.564Z,19.05
2018-12-22T07:03:44.515Z,21.87
2018-12-22T07:06:15.440Z,19.70
2018-12-22T07:08:43.370Z,19.60
2018-12-22T07:11:11.336Z,17.75
2018-12-22T07:13:39.321Z,19.60
2018-12-22T07:16:07.504Z,20.50
2018-12-22T07:18:35.554Z,21.85
2018-12-22T07:21:03.534Z,20.00
2018-12-22T07:23:31.469Z,21.93
2018-12-22T07:25:59.465Z,20.55
2018-12-22T07:28:27.440Z,25.15
2018-12-22T07:30:55.398Z,24.72
2018-12-22T07:33:23.327Z,22.25
2018-12-22T07:35:51.257Z,25.48
2018-12-22T07:38:19.275Z,22.93
2018-12-22T07:40:47.218Z,19.42
2018-12-22T07:43:15.210Z,18.90
2018-12-22T07:45:43.229Z,18.23
2018-12-22T07:48:11.250Z,18.23
2018-12-22T07:50:39.256Z,18.62
2018-12-22T07:53:07.276Z,19.20
2018-12-22T07:55:35.308Z,20.20
2018-12-22T07:58:03.294Z,19.95
2018-12-22T08:00:35.164Z,22.32
2018-12-22T08:03:02.547Z,21.50
2018-12-22T08:05:38.593Z,21.93
2018-12-22T08:08:01.521Z,18.67
2018-12-22T08:10:29.492Z,17.07
2018-12-22T08:12:57.547Z,17.87
2018-12-22T08:15:25.518Z,17.62
2018-12-22T08:17:53.505Z,16.15
2018-12-22T08:20:28.522Z,17.27
2018-12-22T08:22:56.532Z,16.50
2018-12-22T08:25:24.521Z,15.13
2018-12-22T08:27:52.523Z,16.33
2018-12-22T08:30:20.518Z,15.40
2018-12-22T08:32:48.468Z,15.67
2018-12-22T08:35:16.559Z,15.23
2018-12-22T08:37:44.509Z,16.73
2018-12-22T08:40:12.503Z,16.70
2018-12-22T08:42:40.452Z,16.37
2018-12-22T08:45:08.464Z,15.47
2018-12-22T08:47:36.481Z,14.20
2018-12-22T08:50:09.416Z,14.10
2018-12-22T08:52:35.415Z,13.13
2018-12-22T08:55:03.707Z,10.83
2018-12-22T08:57:31.707Z,12.03
2018-12-22T08:59:59.712Z,10.60
2018-12-22T09:02:27.737Z,11.53
2018-12-22T09:04:55.716Z,11.40
2018-12-22T09:07:23.681Z,10.97
2018-12-22T09:09:51.680Z,10.40
2018-12-22T09:12:19.644Z,11.50
2018-12-22T09:14:47.605Z,16.50
2018-12-22T09:17:15.640Z,21.50
2018-12-22T09:19:43.597Z,22.50
2018-12-22T09:22:11.530Z,25.97
2018-12-22T09:24:39.459Z,26.10
2018-12-22T09:27:07.411Z,26.70
2018-12-22T09:29:35.357Z,30.13
2018-12-22T09:32:03.327Z,30.70
2018-12-22T09:34:31.253Z,29.57
2018-12-22T09:36:59.204Z,30.50
2018-12-22T09:39:27.173Z,28.90
2018-12-22T09:41:55.113Z,27.70
2018-12-22T09:44:23.003Z,27.70
2018-12-22T09:46:50.960Z,26.17
2018-12-22T09:49:18.882Z,27.13
2018-12-22T09:51:46.833Z,29.27
2018-12-22T09:54:14.901Z,26.80
2018-12-22T09:56:42.875Z,28.87
2018-12-22T09:59:10.830Z,29.63
2018-12-22T10:01:38.732Z,28.57
2018-12-22T10:04:06.617Z,28.40
2018-12-22T10:06:34.527Z,28.38
2018-12-22T10:09:04.675Z,33.60
2018-12-22T10:11:32.694Z,34.70
2018-12-22T10:14:00.612Z,32.95
2018-12-22T10:16:28.558Z,34.67
2018-12-22T10:18:57.662Z,31.93
2018-12-22T10:21:25.723Z,31.45
2018-12-22T10:23:53.667Z,31.23
2018-12-22T10:26:21.558Z,32.45
2018-12-22T10:28:49.497Z,30.33
2018-12-22T10:31:18.112Z,29.53
2018-12-22T10:33:46.371Z,25.73
2018-12-22T10:36:14.306Z,29.83
2018-12-22T10:38:42.280Z,28.10
2018-12-22T10:41:10.238Z,28.23
2018-12-22T10:43:38.168Z,28.60
2018-12-22T10:46:06.087Z,27.53
2018-12-22T10:48:34.032Z,27.63
2018-12-22T10:51:01.990Z,24.97
2018-12-22T10:53:29.926Z,28.43
2018-12-22T10:55:57.864Z,26.50
2018-12-22T10:58:25.752Z,25.63
2018-12-22T11:00:53.770Z,25.20
2018-12-22T11:03:21.767Z,28.60
2018-12-22T11:05:49.639Z,26.47
2018-12-22T11:08:17.617Z,25.93
2018-12-22T11:10:45.533Z,26.20
2018-12-22T11:13:13.506Z,25.27
2018-12-22T11:15:41.431Z,22.60
2018-12-22T11:18:09.342Z,22.07
2018-12-22T11:20:37.328Z,21.30
2018-12-22T11:23:05.272Z,20.73
2018-12-22T11:25:33.211Z,19.40
2018-12-22T11:28:01.131Z,19.60
2018-12-22T11:30:31.059Z,19.47
2018-12-22T11:32:59.325Z,18.70
2018-12-22T11:35:27.607Z,20.00
2018-12-22T11:37:55.637Z,18.03
2018-12-22T11:40:23.647Z,18.77
2018-12-22T11:42:51.616Z,18.93
2018-12-22T11:45:19.669Z,19.37
2018-12-22T11:47:59.359Z,18.53
2018-12-22T11:50:28.146Z,20.20
2018-12-22T11:52:56.082Z,22.43
2018-12-22T11:55:24.052Z,19.57
2018-12-22T11:57:51.971Z,16.70
2018-12-22T12:00:19.937Z,17.87
2018-12-22T12:02:47.885Z,20.13
2018-12-22T12:05:15.809Z,19.20
2018-12-22T12:07:43.775Z,17.70
2018-12-22T12:10:11.726Z,18.60
2018-12-22T12:12:39.689Z,18.17
2018-12-22T12:15:10.375Z,17.57
2018-12-22T12:17:42.999Z,18.47
2018-12-22T12:20:10.902Z,19.00
2018-12-22T12:22:38.849Z,19.43
2018-12-22T12:25:06.904Z,19.70
2018-12-22T12:27:34.856Z,20.20
2018-12-22T12:30:02.782Z,18.37
2018-12-22T12:32:30.767Z,18.90
2018-12-22T12:34:58.661Z,19.90
2018-12-22T12:37:26.619Z,18.13
2018-12-22T12:39:54.581Z,17.17
2018-12-22T12:42:22.486Z,18.17
2018-12-22T12:44:50.448Z,17.17
2018-12-22T12:47:18.435Z,16.83
2018-12-22T12:49:46.410Z,17.97
2018-12-22T12:52:14.346Z,16.80
2018-12-22T12:54:42.274Z,14.90
2018-12-22T12:57:10.506Z,14.93
2018-12-22T12:59:38.494Z,15.23
2018-12-22T13:02:08.185Z,15.73
2018-12-22T13:04:36.456Z,17.00
2018-12-22T13:07:04.714Z,17.13
2018-12-22T13:09:32.658Z,15.83
2018-12-22T13:12:04.708Z,14.53
2018-12-22T13:14:32.677Z,13.97
2018-12-22T13:17:00.560Z,14.30
2018-12-22T13:19:28.536Z,13.57
2018-12-22T13:21:56.461Z,13.17
2018-12-22T13:24:24.420Z,13.93
2018-12-22T13:26:52.345Z,12.63
2018-12-22T13:29:21.333Z,12.60
2018-12-22T13:31:49.293Z,12.70
2018-12-22T13:34:17.453Z,14.00
2018-12-22T13:36:45.395Z,12.03
2018-12-22T13:39:15.531Z,12.43
2018-12-22T13:41:43.480Z,13.60
2018-12-22T13:44:11.518Z,12.37
2018-12-22T13:46:39.547Z,13.03
2018-12-22T13:49:07.811Z,13.23
2018-12-22T13:51:36.593Z,13.90
2018-12-22T13:54:04.496Z,11.80
2018-12-22T13:56:32.409Z,12.80
2018-12-22T13:59:00.376Z,12.60
2018-12-22T14:01:29.143Z,10.20
2018-12-22T14:03:57.090Z,10.40
2018-12-22T14:06:34.044Z,10.37
2018-12-22T14:09:01.954Z,9.70
2018-12-22T14:11:31.328Z,10.20
2018-12-22T14:13:59.406Z,9.27
2018-12-22T14:16:32.886Z,10.30
2018-12-22T14:19:02.738Z,11.47
2018-12-22T14:21:33.621Z,11.03
2018-12-22T14:24:10.670Z,10.83
2018-12-22T14:26:38.702Z,11.00
2018-12-22T14:29:06.642Z,10.07
2018-12-22T14:31:34.570Z,9.93
2018-12-22T14:34:04.858Z,12.30
2018-12-22T14:36:32.816Z,11.97
2018-12-22T14:39:00.802Z,11.60
2018-12-22T14:41:28.810Z,11.00
2018-12-22T14:43:56.746Z,13.13
2018-12-22T14:46:24.761Z,14.17
2018-12-22T14:48:52.778Z,16.02
2018-12-22T14:51:20.732Z,14.37
2018-12-22T14:53:48.722Z,14.40
2018-12-22T14:56:17.057Z,17.05
2018-12-22T14:58:45.122Z,16.00
2018-12-22T15:01:13.037Z,16.23
2018-12-22T15:03:41.008Z,16.27
2018-12-22T15:06:09.019Z,16.57
2018-12-22T15:08:37.017Z,16.90
2018-12-22T15:11:04.997Z,16.30
2018-12-22T15:13:32.947Z,17.80
2018-12-22T15:16:00.954Z,17.90
2018-12-22T15:18:29.118Z,16.85
2018-12-22T15:20:57.697Z,17.45
2018-12-22T15:23:25.707Z,17.57
2018-12-22T15:25:53.666Z,17.00
2018-12-22T15:28:21.729Z,16.17
2018-12-22T15:30:49.795Z,17.25
2018-12-22T15:33:17.735Z,16.90
2018-12-22T15:35:45.726Z,16.80
2018-12-22T15:38:13.679Z,15.98
2018-12-22T15:40:41.808Z,14.87
2018-12-22T15:43:09.761Z,14.95
2018-12-22T15:45:37.737Z,15.30
2018-12-22T15:48:05.709Z,15.88
2018-12-22T15:50:34.863Z,15.75
2018-12-22T15:53:02.824Z,17.80
2018-12-22T15:55:31.974Z,19.37
2018-12-22T15:58:00.034Z,18.80
2018-12-22T16:00:28.102Z,17.67
2018-12-22T16:02:56.055Z,16.12
2018-12-22T16:05:24.155Z,17.02
2018-12-22T16:07:52.255Z,16.25
2018-12-22T16:10:20.276Z,17.40
2018-12-22T16:12:48.218Z,16.60
2018-12-22T16:15:17.123Z,18.42
2018-12-22T16:17:45.082Z,17.80
2018-12-22T16:20:13.059Z,16.00
2018-12-22T16:22:42.903Z,17.05
2018-12-22T16:25:11.617Z,18.07
2018-12-22T16:27:39.996Z,18.73
2018-12-22T16:30:10.865Z,19.92
2018-12-22T16:32:38.898Z,18.42
2018-12-22T16:35:07.116Z,18.20
2018-12-22T16:37:35.091Z,17.15
2018-12-22T16:40:03.111Z,18.77
2018-12-22T16:42:31.161Z,19.00
2018-12-22T16:44:59.160Z,18.07
2018-12-22T16:47:27.152Z,19.45
2018-12-22T16:49:55.146Z,19.37
2018-12-22T16:52:23.118Z,18.62
2018-12-22T16:54:51.145Z,17.37
2018-12-22T16:57:19.143Z,20.97
2018-12-22T16:59:47.172Z,17.42
2018-12-22T17:02:19.478Z,16.30
2018-12-22T17:04:47.496Z,17.55
2018-12-22T17:07:15.451Z,17.85
2018-12-22T17:09:43.375Z,16.57
2018-12-22T17:12:11.315Z,17.52
2018-12-22T17:14:39.283Z,16.20
2018-12-22T17:17:07.441Z,15.25
2018-12-22T17:19:35.432Z,15.72
2018-12-22T17:22:18.834Z,15.35
2018-12-22T17:24:49.163Z,15.65
2018-12-22T17:27:17.207Z,15.03
2018-12-22T17:29:45.242Z,15.58
2018-12-22T17:32:13.163Z,16.25
2018-12-22T17:34:41.158Z,16.50
2018-12-22T17:37:09.158Z,14.35
2018-12-22T17:39:37.109Z,15.60
2018-12-22T17:42:05.083Z,15.70
2018-12-22T17:44:32.990Z,14.90
2018-12-22T17:47:00.959Z,13.95
2018-12-22T17:49:28.895Z,15.15
2018-12-22T17:51:56.898Z,14.90
2018-12-22T17:54:24.857Z,13.48
2018-12-22T17:56:52.814Z,11.80
2018-12-22T17:59:20.777Z,12.30
2018-12-22T18:01:48.696Z,13.10
2018-12-22T18:04:16.658Z,13.10
2018-12-22T18:06:44.663Z,12.43
2018-12-22T18:09:12.590Z,10.78
2018-12-22T18:11:40.549Z,9.73
2018-12-22T18:14:08.469Z,10.90
2018-12-22T18:16:36.417Z,9.85
2018-12-22T18:19:04.365Z,10.40
2018-12-22T18:21:32.311Z,11.45
2018-12-22T18:24:00.293Z,10.72
2018-12-22T18:26:28.272Z,10.70
2018-12-22T18:28:56.258Z,10.32
2018-12-22T18:31:24.183Z,9.88
2018-12-22T18:33:52.190Z,9.63
2018-12-22T18:36:20.174Z,8.78
2018-12-22T18:38:48.142Z,9.60
2018-12-22T18:41:16.139Z,7.37
2018-12-22T18:43:44.113Z,6.53
2018-12-22T18:46:12.102Z,6.12
2018-12-22T18:48:40.095Z,5.03
2018-12-22T18:51:08.038Z,4.40
2018-12-22T18:53:35.996Z,3.35
2018-12-22T18:56:04.055Z,3.15
2018-12-22T18:58:32.037Z,2.92
2018-12-22T19:00:59.987Z,2.90
2018-12-22T19:03:27.943Z,2.20
2018-12-22T19:05:55.891Z,1.52
2018-12-22T19:08:23.845Z,1.72
2018-12-22T19:10:56.473Z,2.10
2018-12-22T19:13:24.475Z,2.30
2018-12-22T19:15:52.489Z,2.15
2018-12-22T19:18:20.449Z,2.35
2018-12-22T19:20:49.461Z,1.80
2018-12-22T19:23:18.089Z,1.40
2018-12-22T19:25:46.069Z,1.45
2018-12-22T19:28:14.129Z,2.05
2018-12-22T19:30:44.376Z,1.87
2018-12-22T19:33:12.116Z,2.40
2018-12-22T19:35:40.110Z,2.25
2018-12-22T19:38:08.077Z,2.00
2018-12-22T19:40:36.045Z,1.30
2018-12-22T19:43:04.017Z,1.50
2018-12-22T19:45:31.995Z,1.07
2018-12-22T19:47:59.943Z,1.15
2018-12-22T19:50:27.877Z,2.05
2018-12-22T19:52:55.797Z,1.67
2018-12-22T19:55:23.746Z,1.55
2018-12-22T19:57:51.790Z,1.45
2018-12-22T20:00:19.839Z,1.65
2018-12-22T20:02:47.789Z,1.90
2018-12-22T20:05:15.745Z,1.98
2018-12-22T20:07:43.691Z,2.03
2018-12-22T20:10:11.660Z,1.57
2018-12-22T20:12:39.593Z,3.00
2018-12-22T20:15:07.567Z,2.65
2018-12-22T20:17:35.515Z,2.70
2018-12-22T20:20:03.782Z,3.12
2018-12-22T20:22:31.703Z,2.80
2018-12-22T20:24:59.674Z,2.22
2018-12-22T20:27:27.669Z,1.70
2018-12-22T20:29:55.626Z,2.98
2018-12-22T20:32:23.623Z,1.20
2018-12-22T20:34:51.682Z,0.90
2018-12-22T20:37:19.655Z,1.47
2018-12-22T20:39:47.610Z,1.15
2018-12-22T20:42:15.565Z,1.67
2018-12-22T20:44:43.553Z,1.20
2018-12-22T20:47:11.514Z,1.50
2018-12-22T20:49:46.382Z,1.15
2018-12-22T20:52:14.298Z,0.93
2018-12-22T20:54:42.250Z,0.68
2018-12-22T20:57:10.201Z,12.53
2018-12-22T20:59:38.130Z,13.25
2018-12-22T21:02:06.100Z,6.92
2018-12-22T21:04:34.157Z,12.47
2018-12-22T21:07:02.081Z,14.53
2018-12-22T21:09:29.981Z,13.30
2018-12-22T21:11:57.954Z,13.58
2018-12-22T21:14:25.886Z,15.75
2018-12-22T21:16:53.872Z,14.65
2018-12-22T21:19:21.841Z,15.30
2018-12-22T21:21:49.779Z,14.28
2018-12-22T21:24:17.782Z,14.00
2018-12-22T21:26:45.834Z,14.33
2018-12-22T21:29:13.782Z,13.10
2018-12-22T21:31:41.746Z,13.72
2018-12-22T21:34:09.678Z,13.18
2018-12-22T21:36:37.636Z,14.75
2018-12-22T21:39:06.022Z,13.62
2018-12-22T21:41:33.966Z,12.88
2018-12-22T21:44:01.874Z,13.60
2018-12-22T21:46:29.800Z,14.15
2018-12-22T21:48:57.801Z,14.00
2018-12-22T21:51:25.759Z,14.15
2018-12-22T21:53:53.703Z,13.62
2018-12-22T21:56:21.663Z,12.82
2018-12-22T21:58:49.639Z,13.32
2018-12-22T22:01:17.574Z,12.10
2018-12-22T22:03:45.530Z,12.20
2018-12-22T22:06:13.483Z,14.30
2018-12-22T22:08:41.426Z,13.85
2018-12-22T22:11:09.389Z,13.03
2018-12-22T22:13:37.300Z,13.83
2018-12-22T22:16:05.280Z,14.00
2018-12-22T22:18:33.206Z,13.38
2018-12-22T22:21:01.164Z,13.32
2018-12-22T22:23:30.142Z,12.10
2018-12-22T22:25:58.078Z,13.45
2018-12-22T22:28:26.006Z,13.65
2018-12-22T22:30:53.943Z,13.72
2018-12-22T22:33:21.911Z,11.63
2018-12-22T22:35:49.823Z,13.20
2018-12-22T22:38:17.795Z,14.33
2018-12-22T22:40:45.830Z,14.28
2018-12-22T22:43:13.813Z,13.35
2018-12-22T22:45:41.758Z,13.53
2018-12-22T22:48:09.732Z,14.35
2018-12-22T22:50:37.674Z,13.62
2018-12-22T22:53:05.708Z,13.60
2018-12-22T22:55:33.709Z,14.30
2018-12-22T22:58:01.621Z,13.88
2018-12-22T23:00:35.812Z,14.98
2018-12-22T23:03:04.139Z,14.07
2018-12-22T23:05:32.123Z,13.43
2018-12-22T23:08:00.216Z,14.87
2018-12-22T23:10:28.142Z,14.78
2018-12-22T23:12:56.205Z,15.18
2018-12-22T23:15:24.114Z,13.50
2018-12-22T23:17:52.082Z,15.08
2018-12-22T23:20:19.995Z,15.10
2018-12-22T23:22:47.890Z,14.83
2018-12-22T23:25:15.809Z,15.13
2018-12-22T23:27:43.822Z,15.32
2018-12-22T23:30:11.889Z,16.40
2018-12-22T23:32:39.855Z,16.00
2018-12-22T23:35:07.797Z,15.83
2018-12-22T23:37:35.767Z,16.73
2018-12-22T23:40:03.884Z,18.15
2018-12-22T23:42:31.842Z,17.90
2018-12-22T23:44:59.776Z,16.00
2018-12-22T23:47:27.697Z,16.57
2018-12-22T23:49:55.609Z,16.87
2018-12-22T23:52:23.547Z,16.55
2018-12-22T23:54:51.487Z,15.98
2018-12-22T23:57:19.410Z,13.60
2018-12-22T23:59:47.393Z,15.05
